sensor_id;sensor_type;location;lat;lon;timestamp;P1;durP1;ratioP1;P2;durP2;ratioP2
74833;SDS011;63361;52.384;20.930;2022-12-10T00:11:34;84.38;;;32.97;;
74833;SDS011;63361;52.384;20.930;2022-12-10T00:13:59;82.83;;;32.27;;
74833;SDS011;63361;52.384;20.930;2022-12-10T00:16:26;69.40;;;27.83;;
74833;SDS011;63361;52.384;20.930;2022-12-10T00:18:53;69.75;;;30.55;;
74833;SDS011;63361;52.384;20.930;2022-12-10T00:21:23;89.90;;;33.13;;
74833;SDS011;63361;52.384;20.930;2022-12-10T00:23:50;82.22;;;32.67;;
74833;SDS011;63361;52.384;20.930;2022-12-10T00:26:17;88.00;;;33.97;;
74833;SDS011;63361;52.384;20.930;2022-12-10T00:28:46;63.40;;;26.33;;
74833;SDS011;63361;52.384;20.930;2022-12-10T00:31:16;69.95;;;30.60;;
74833;SDS011;63361;52.384;20.930;2022-12-10T00:33:46;58.37;;;24.07;;
74833;SDS011;63361;52.384;20.930;2022-12-10T00:36:13;79.82;;;32.58;;
74833;SDS011;63361;52.384;20.930;2022-12-10T00:38:41;89.25;;;34.97;;
74833;SDS011;63361;52.384;20.930;2022-12-10T00:41:08;84.22;;;34.95;;
74833;SDS011;63361;52.384;20.930;2022-12-10T00:43:34;84.27;;;33.03;;
74833;SDS011;63361;52.384;20.930;2022-12-10T00:46:00;74.03;;;31.60;;
74833;SDS011;63361;52.384;20.930;2022-12-10T00:48:27;92.20;;;36.22;;
74833;SDS011;63361;52.384;20.930;2022-12-10T00:51:00;85.53;;;34.53;;
74833;SDS011;63361;52.384;20.930;2022-12-10T00:53:31;78.38;;;33.42;;
74833;SDS011;63361;52.384;20.930;2022-12-10T00:55:58;81.33;;;33.27;;
74833;SDS011;63361;52.384;20.930;2022-12-10T00:58:26;81.28;;;32.75;;
74833;SDS011;63361;52.384;20.930;2022-12-10T01:00:53;86.80;;;35.17;;
74833;SDS011;63361;52.384;20.930;2022-12-10T01:03:18;89.57;;;34.57;;
74833;SDS011;63361;52.384;20.930;2022-12-10T01:05:44;86.90;;;33.73;;
74833;SDS011;63361;52.384;20.930;2022-12-10T01:08:09;65.90;;;27.80;;
74833;SDS011;63361;52.384;20.930;2022-12-10T01:10:35;83.03;;;32.83;;
74833;SDS011;63361;52.384;20.930;2022-12-10T01:13:00;84.57;;;32.40;;
74833;SDS011;63361;52.384;20.930;2022-12-10T01:15:25;85.80;;;33.43;;
74833;SDS011;63361;52.384;20.930;2022-12-10T01:17:51;86.45;;;32.00;;
74833;SDS011;63361;52.384;20.930;2022-12-10T01:20:16;81.23;;;31.60;;
74833;SDS011;63361;52.384;20.930;2022-12-10T01:22:42;77.77;;;32.20;;
74833;SDS011;63361;52.384;20.930;2022-12-10T01:25:07;81.33;;;32.33;;
74833;SDS011;63361;52.384;20.930;2022-12-10T01:27:33;86.32;;;32.90;;
74833;SDS011;63361;52.384;20.930;2022-12-10T01:29:58;83.77;;;34.57;;
74833;SDS011;63361;52.384;20.930;2022-12-10T01:32:24;83.87;;;33.07;;
74833;SDS011;63361;52.384;20.930;2022-12-10T01:34:49;78.93;;;30.53;;
74833;SDS011;63361;52.384;20.930;2022-12-10T01:37:15;83.80;;;31.98;;
74833;SDS011;63361;52.384;20.930;2022-12-10T01:39:41;74.30;;;28.60;;
74833;SDS011;63361;52.384;20.930;2022-12-10T01:42:09;87.30;;;32.13;;
74833;SDS011;63361;52.384;20.930;2022-12-10T01:47:06;79.37;;;32.20;;
74833;SDS011;63361;52.384;20.930;2022-12-10T01:49:33;82.75;;;30.48;;
74833;SDS011;63361;52.384;20.930;2022-12-10T01:52:02;71.63;;;28.83;;
74833;SDS011;63361;52.384;20.930;2022-12-10T01:54:33;75.60;;;28.67;;
74833;SDS011;63361;52.384;20.930;2022-12-10T01:57:06;65.55;;;25.60;;
74833;SDS011;63361;52.384;20.930;2022-12-10T01:59:35;82.03;;;31.80;;
74833;SDS011;63361;52.384;20.930;2022-12-10T02:02:04;63.15;;;26.17;;
74833;SDS011;63361;52.384;20.930;2022-12-10T02:07:18;72.50;;;28.13;;
74833;SDS011;63361;52.384;20.930;2022-12-10T02:15:33;69.35;;;28.52;;
74833;SDS011;63361;52.384;20.930;2022-12-10T02:20:54;79.88;;;29.75;;
74833;SDS011;63361;52.384;20.930;2022-12-10T02:23:28;74.72;;;28.30;;
74833;SDS011;63361;52.384;20.930;2022-12-10T02:31:15;71.97;;;29.08;;
74833;SDS011;63361;52.384;20.930;2022-12-10T02:33:47;68.10;;;26.73;;
74833;SDS011;63361;52.384;20.930;2022-12-10T02:36:16;63.92;;;24.35;;
74833;SDS011;63361;52.384;20.930;2022-12-10T02:38:45;79.13;;;30.93;;
74833;SDS011;63361;52.384;20.930;2022-12-10T02:41:15;82.40;;;29.92;;
74833;SDS011;63361;52.384;20.930;2022-12-10T02:43:45;73.53;;;28.73;;
74833;SDS011;63361;52.384;20.930;2022-12-10T02:46:11;78.47;;;28.75;;
74833;SDS011;63361;52.384;20.930;2022-12-10T02:48:37;74.63;;;29.67;;
74833;SDS011;63361;52.384;20.930;2022-12-10T02:51:05;78.57;;;31.75;;
74833;SDS011;63361;52.384;20.930;2022-12-10T02:53:30;82.67;;;29.53;;
74833;SDS011;63361;52.384;20.930;2022-12-10T02:59:19;73.40;;;28.10;;
74833;SDS011;63361;52.384;20.930;2022-12-10T03:04:45;68.13;;;26.70;;
74833;SDS011;63361;52.384;20.930;2022-12-10T03:07:16;76.80;;;29.30;;
74833;SDS011;63361;52.384;20.930;2022-12-10T03:09:58;78.63;;;31.15;;
74833;SDS011;63361;52.384;20.930;2022-12-10T03:12:35;78.63;;;28.70;;
74833;SDS011;63361;52.384;20.930;2022-12-10T03:15:07;72.95;;;27.55;;
74833;SDS011;63361;52.384;20.930;2022-12-10T03:17:34;73.55;;;28.45;;
74833;SDS011;63361;52.384;20.930;2022-12-10T03:20:03;78.57;;;30.00;;
74833;SDS011;63361;52.384;20.930;2022-12-10T03:22:33;69.40;;;25.50;;
74833;SDS011;63361;52.384;20.930;2022-12-10T03:25:00;71.20;;;25.93;;
74833;SDS011;63361;52.384;20.930;2022-12-10T03:27:26;73.47;;;26.40;;
74833;SDS011;63361;52.384;20.930;2022-12-10T03:29:54;71.70;;;26.95;;
74833;SDS011;63361;52.384;20.930;2022-12-10T03:32:22;53.58;;;21.25;;
74833;SDS011;63361;52.384;20.930;2022-12-10T03:34:51;73.33;;;25.87;;
74833;SDS011;63361;52.384;20.930;2022-12-10T03:37:18;66.93;;;25.00;;
74833;SDS011;63361;52.384;20.930;2022-12-10T03:39:46;78.55;;;29.25;;
74833;SDS011;63361;52.384;20.930;2022-12-10T03:42:11;69.83;;;26.00;;
74833;SDS011;63361;52.384;20.930;2022-12-10T03:44:38;64.10;;;22.13;;
74833;SDS011;63361;52.384;20.930;2022-12-10T03:47:05;50.63;;;19.30;;
74833;SDS011;63361;52.384;20.930;2022-12-10T03:49:35;58.70;;;20.42;;
74833;SDS011;63361;52.384;20.930;2022-12-10T03:52:01;79.13;;;28.98;;
74833;SDS011;63361;52.384;20.930;2022-12-10T03:54:26;71.40;;;24.47;;
74833;SDS011;63361;52.384;20.930;2022-12-10T03:56:52;83.50;;;26.03;;
74833;SDS011;63361;52.384;20.930;2022-12-10T03:59:17;76.63;;;27.27;;
74833;SDS011;63361;52.384;20.930;2022-12-10T04:01:43;69.85;;;21.48;;
74833;SDS011;63361;52.384;20.930;2022-12-10T04:04:08;74.43;;;25.97;;
74833;SDS011;63361;52.384;20.930;2022-12-10T04:06:34;77.60;;;26.17;;
74833;SDS011;63361;52.384;20.930;2022-12-10T04:09:02;76.13;;;27.07;;
74833;SDS011;63361;52.384;20.930;2022-12-10T04:11:27;80.15;;;25.20;;
74833;SDS011;63361;52.384;20.930;2022-12-10T04:13:53;77.40;;;26.80;;
74833;SDS011;63361;52.384;20.930;2022-12-10T04:16:37;85.53;;;28.70;;
74833;SDS011;63361;52.384;20.930;2022-12-10T04:19:07;95.13;;;29.47;;
74833;SDS011;63361;52.384;20.930;2022-12-10T04:21:35;61.85;;;22.55;;
74833;SDS011;63361;52.384;20.930;2022-12-10T04:24:21;69.15;;;23.65;;
74833;SDS011;63361;52.384;20.930;2022-12-10T04:27:11;68.53;;;23.60;;
74833;SDS011;63361;52.384;20.930;2022-12-10T04:29:45;78.95;;;27.10;;
74833;SDS011;63361;52.384;20.930;2022-12-10T04:32:11;82.00;;;26.83;;
74833;SDS011;63361;52.384;20.930;2022-12-10T04:34:36;62.73;;;20.87;;
74833;SDS011;63361;52.384;20.930;2022-12-10T04:37:02;76.30;;;26.17;;
74833;SDS011;63361;52.384;20.930;2022-12-10T04:39:29;72.93;;;23.30;;
74833;SDS011;63361;52.384;20.930;2022-12-10T04:41:55;90.47;;;27.58;;
74833;SDS011;63361;52.384;20.930;2022-12-10T04:44:21;67.15;;;22.88;;
74833;SDS011;63361;52.384;20.930;2022-12-10T04:46:46;79.07;;;28.37;;
74833;SDS011;63361;52.384;20.930;2022-12-10T04:49:12;74.05;;;24.20;;
74833;SDS011;63361;52.384;20.930;2022-12-10T04:51:39;67.43;;;24.63;;
74833;SDS011;63361;52.384;20.930;2022-12-10T04:54:05;76.80;;;26.50;;
74833;SDS011;63361;52.384;20.930;2022-12-10T04:56:31;80.40;;;27.35;;
74833;SDS011;63361;52.384;20.930;2022-12-10T04:58:57;73.63;;;25.60;;
74833;SDS011;63361;52.384;20.930;2022-12-10T05:01:24;78.30;;;26.40;;
74833;SDS011;63361;52.384;20.930;2022-12-10T05:03:49;58.90;;;21.57;;
74833;SDS011;63361;52.384;20.930;2022-12-10T05:06:15;68.93;;;24.33;;
74833;SDS011;63361;52.384;20.930;2022-12-10T05:08:42;57.30;;;20.75;;
74833;SDS011;63361;52.384;20.930;2022-12-10T05:11:09;77.10;;;24.43;;
74833;SDS011;63361;52.384;20.930;2022-12-10T05:13:37;72.20;;;23.27;;
74833;SDS011;63361;52.384;20.930;2022-12-10T05:16:03;58.85;;;22.08;;
74833;SDS011;63361;52.384;20.930;2022-12-10T05:18:30;60.85;;;21.65;;
74833;SDS011;63361;52.384;20.930;2022-12-10T05:21:00;60.10;;;20.27;;
74833;SDS011;63361;52.384;20.930;2022-12-10T05:23:26;74.32;;;24.38;;
74833;SDS011;63361;52.384;20.930;2022-12-10T05:26:02;60.95;;;20.98;;
74833;SDS011;63361;52.384;20.930;2022-12-10T05:28:30;48.28;;;18.02;;
74833;SDS011;63361;52.384;20.930;2022-12-10T05:30:57;65.85;;;24.27;;
74833;SDS011;63361;52.384;20.930;2022-12-10T05:33:24;62.07;;;21.33;;
74833;SDS011;63361;52.384;20.930;2022-12-10T05:35:59;64.80;;;22.30;;
74833;SDS011;63361;52.384;20.930;2022-12-10T05:38:28;60.40;;;22.65;;
74833;SDS011;63361;52.384;20.930;2022-12-10T05:40:54;56.55;;;18.50;;
74833;SDS011;63361;52.384;20.930;2022-12-10T05:43:20;58.30;;;21.17;;
74833;SDS011;63361;52.384;20.930;2022-12-10T05:45:46;55.77;;;19.80;;
74833;SDS011;63361;52.384;20.930;2022-12-10T05:48:13;64.20;;;20.98;;
74833;SDS011;63361;52.384;20.930;2022-12-10T05:50:40;55.05;;;18.08;;
74833;SDS011;63361;52.384;20.930;2022-12-10T05:53:06;57.53;;;21.95;;
74833;SDS011;63361;52.384;20.930;2022-12-10T05:55:31;66.60;;;22.00;;
74833;SDS011;63361;52.384;20.930;2022-12-10T05:57:58;60.55;;;21.02;;
74833;SDS011;63361;52.384;20.930;2022-12-10T06:00:24;57.00;;;21.67;;
74833;SDS011;63361;52.384;20.930;2022-12-10T06:02:50;71.23;;;23.43;;
74833;SDS011;63361;52.384;20.930;2022-12-10T06:05:16;55.63;;;18.87;;
74833;SDS011;63361;52.384;20.930;2022-12-10T06:07:41;60.40;;;21.30;;
74833;SDS011;63361;52.384;20.930;2022-12-10T06:10:07;62.45;;;22.40;;
74833;SDS011;63361;52.384;20.930;2022-12-10T06:12:33;52.00;;;18.23;;
74833;SDS011;63361;52.384;20.930;2022-12-10T06:14:58;42.13;;;15.33;;
74833;SDS011;63361;52.384;20.930;2022-12-10T06:17:23;59.40;;;22.05;;
74833;SDS011;63361;52.384;20.930;2022-12-10T06:19:49;49.97;;;17.87;;
74833;SDS011;63361;52.384;20.930;2022-12-10T06:22:14;65.37;;;21.40;;
74833;SDS011;63361;52.384;20.930;2022-12-10T06:24:39;57.83;;;20.90;;
74833;SDS011;63361;52.384;20.930;2022-12-10T06:27:05;62.10;;;20.27;;
74833;SDS011;63361;52.384;20.930;2022-12-10T06:29:30;68.33;;;21.30;;
74833;SDS011;63361;52.384;20.930;2022-12-10T06:31:56;67.23;;;21.23;;
74833;SDS011;63361;52.384;20.930;2022-12-10T06:34:21;60.60;;;21.27;;
74833;SDS011;63361;52.384;20.930;2022-12-10T06:36:46;50.13;;;18.37;;
74833;SDS011;63361;52.384;20.930;2022-12-10T06:39:12;55.47;;;18.17;;
74833;SDS011;63361;52.384;20.930;2022-12-10T06:41:37;62.17;;;19.93;;
74833;SDS011;63361;52.384;20.930;2022-12-10T06:44:06;62.60;;;20.90;;
74833;SDS011;63361;52.384;20.930;2022-12-10T06:46:32;70.53;;;22.10;;
74833;SDS011;63361;52.384;20.930;2022-12-10T06:48:57;77.83;;;24.50;;
74833;SDS011;63361;52.384;20.930;2022-12-10T06:51:22;67.03;;;22.13;;
74833;SDS011;63361;52.384;20.930;2022-12-10T06:53:48;76.67;;;23.70;;
74833;SDS011;63361;52.384;20.930;2022-12-10T06:56:17;67.90;;;21.87;;
74833;SDS011;63361;52.384;20.930;2022-12-10T06:58:43;68.85;;;23.63;;
74833;SDS011;63361;52.384;20.930;2022-12-10T07:01:30;67.93;;;23.35;;
74833;SDS011;63361;52.384;20.930;2022-12-10T07:03:56;67.22;;;22.65;;
74833;SDS011;63361;52.384;20.930;2022-12-10T07:06:22;56.50;;;19.57;;
74833;SDS011;63361;52.384;20.930;2022-12-10T07:08:48;61.40;;;23.33;;
74833;SDS011;63361;52.384;20.930;2022-12-10T07:11:15;51.75;;;18.70;;
74833;SDS011;63361;52.384;20.930;2022-12-10T07:13:42;45.50;;;17.17;;
74833;SDS011;63361;52.384;20.930;2022-12-10T07:16:12;41.27;;;18.07;;
74833;SDS011;63361;52.384;20.930;2022-12-10T07:18:37;50.20;;;18.48;;
74833;SDS011;63361;52.384;20.930;2022-12-10T07:21:12;44.80;;;14.47;;
74833;SDS011;63361;52.384;20.930;2022-12-10T07:23:51;45.15;;;16.63;;
74833;SDS011;63361;52.384;20.930;2022-12-10T07:26:23;36.97;;;13.37;;
74833;SDS011;63361;52.384;20.930;2022-12-10T07:28:49;49.22;;;15.88;;
74833;SDS011;63361;52.384;20.930;2022-12-10T07:31:14;48.10;;;18.87;;
74833;SDS011;63361;52.384;20.930;2022-12-10T07:33:39;43.47;;;17.17;;
74833;SDS011;63361;52.384;20.930;2022-12-10T07:36:06;40.10;;;14.53;;
74833;SDS011;63361;52.384;20.930;2022-12-10T07:38:32;53.63;;;16.95;;
74833;SDS011;63361;52.384;20.930;2022-12-10T07:40:57;40.33;;;15.00;;
74833;SDS011;63361;52.384;20.930;2022-12-10T07:43:23;43.87;;;15.63;;
74833;SDS011;63361;52.384;20.930;2022-12-10T07:45:48;39.60;;;14.67;;
74833;SDS011;63361;52.384;20.930;2022-12-10T07:48:13;39.73;;;15.40;;
74833;SDS011;63361;52.384;20.930;2022-12-10T07:50:39;37.40;;;15.68;;
74833;SDS011;63361;52.384;20.930;2022-12-10T07:53:05;49.67;;;16.63;;
74833;SDS011;63361;52.384;20.930;2022-12-10T07:55:31;46.33;;;15.30;;
74833;SDS011;63361;52.384;20.930;2022-12-10T07:57:56;44.73;;;16.30;;
74833;SDS011;63361;52.384;20.930;2022-12-10T08:00:22;39.93;;;13.20;;
74833;SDS011;63361;52.384;20.930;2022-12-10T08:02:47;51.10;;;18.37;;
74833;SDS011;63361;52.384;20.930;2022-12-10T08:05:12;49.70;;;18.10;;
74833;SDS011;63361;52.384;20.930;2022-12-10T08:07:38;52.65;;;16.80;;
74833;SDS011;63361;52.384;20.930;2022-12-10T08:10:03;43.93;;;16.20;;
74833;SDS011;63361;52.384;20.930;2022-12-10T08:12:29;45.70;;;17.17;;
74833;SDS011;63361;52.384;20.930;2022-12-10T08:14:55;52.45;;;15.80;;
74833;SDS011;63361;52.384;20.930;2022-12-10T08:17:20;49.53;;;18.03;;
74833;SDS011;63361;52.384;20.930;2022-12-10T08:19:46;34.33;;;13.57;;
74833;SDS011;63361;52.384;20.930;2022-12-10T08:22:13;38.47;;;13.88;;
74833;SDS011;63361;52.384;20.930;2022-12-10T08:24:39;40.97;;;15.90;;
74833;SDS011;63361;52.384;20.930;2022-12-10T08:27:04;35.30;;;14.63;;
74833;SDS011;63361;52.384;20.930;2022-12-10T08:29:30;42.80;;;15.20;;
74833;SDS011;63361;52.384;20.930;2022-12-10T08:31:55;34.07;;;13.10;;
74833;SDS011;63361;52.384;20.930;2022-12-10T08:34:20;46.20;;;16.60;;
74833;SDS011;63361;52.384;20.930;2022-12-10T08:36:46;48.20;;;17.47;;
74833;SDS011;63361;52.384;20.930;2022-12-10T08:39:12;39.43;;;15.63;;
74833;SDS011;63361;52.384;20.930;2022-12-10T08:41:42;45.10;;;15.30;;
74833;SDS011;63361;52.384;20.930;2022-12-10T08:44:08;43.55;;;16.63;;
74833;SDS011;63361;52.384;20.930;2022-12-10T08:46:34;39.57;;;13.67;;
74833;SDS011;63361;52.384;20.930;2022-12-10T08:48:59;39.87;;;15.93;;
74833;SDS011;63361;52.384;20.930;2022-12-10T08:51:25;32.30;;;11.03;;
74833;SDS011;63361;52.384;20.930;2022-12-10T08:53:52;38.08;;;13.77;;
74833;SDS011;63361;52.384;20.930;2022-12-10T08:56:18;41.63;;;14.27;;
74833;SDS011;63361;52.384;20.930;2022-12-10T08:58:43;37.63;;;14.50;;
74833;SDS011;63361;52.384;20.930;2022-12-10T09:01:13;44.70;;;15.33;;
74833;SDS011;63361;52.384;20.930;2022-12-10T09:03:40;46.38;;;14.32;;
74833;SDS011;63361;52.384;20.930;2022-12-10T09:06:06;36.87;;;12.20;;
74833;SDS011;63361;52.384;20.930;2022-12-10T09:08:33;50.00;;;16.25;;
74833;SDS011;63361;52.384;20.930;2022-12-10T09:11:04;44.57;;;15.27;;
74833;SDS011;63361;52.384;20.930;2022-12-10T09:13:34;47.90;;;16.53;;
74833;SDS011;63361;52.384;20.930;2022-12-10T09:15:59;51.90;;;18.02;;
74833;SDS011;63361;52.384;20.930;2022-12-10T09:18:25;44.20;;;16.57;;
74833;SDS011;63361;52.384;20.930;2022-12-10T09:20:50;48.10;;;17.20;;
74833;SDS011;63361;52.384;20.930;2022-12-10T09:23:15;48.23;;;17.20;;
74833;SDS011;63361;52.384;20.930;2022-12-10T09:25:41;52.17;;;17.80;;
74833;SDS011;63361;52.384;20.930;2022-12-10T09:28:07;45.63;;;16.97;;
74833;SDS011;63361;52.384;20.930;2022-12-10T09:30:32;50.63;;;16.37;;
74833;SDS011;63361;52.384;20.930;2022-12-10T09:32:58;34.80;;;13.07;;
74833;SDS011;63361;52.384;20.930;2022-12-10T09:35:23;43.03;;;16.17;;
74833;SDS011;63361;52.384;20.930;2022-12-10T09:37:49;50.63;;;16.23;;
74833;SDS011;63361;52.384;20.930;2022-12-10T09:40:15;47.70;;;16.27;;
74833;SDS011;63361;52.384;20.930;2022-12-10T09:45:29;42.30;;;13.65;;
74833;SDS011;63361;52.384;20.930;2022-12-10T09:53:33;42.83;;;13.13;;
74833;SDS011;63361;52.384;20.930;2022-12-10T09:56:01;30.80;;;13.65;;
74833;SDS011;63361;52.384;20.930;2022-12-10T09:58:27;43.00;;;13.93;;
74833;SDS011;63361;52.384;20.930;2022-12-10T10:01:00;43.87;;;14.13;;
74833;SDS011;63361;52.384;20.930;2022-12-10T10:03:30;43.90;;;15.47;;
74833;SDS011;63361;52.384;20.930;2022-12-10T10:06:00;43.50;;;15.38;;
74833;SDS011;63361;52.384;20.930;2022-12-10T10:10:54;34.77;;;12.83;;
74833;SDS011;63361;52.384;20.930;2022-12-10T10:18:41;41.67;;;15.32;;
74833;SDS011;63361;52.384;20.930;2022-12-10T10:21:30;48.07;;;17.27;;
74833;SDS011;63361;52.384;20.930;2022-12-10T10:24:00;45.10;;;15.75;;
74833;SDS011;63361;52.384;20.930;2022-12-10T10:26:27;46.05;;;17.27;;
74833;SDS011;63361;52.384;20.930;2022-12-10T10:29:04;41.72;;;13.80;;
74833;SDS011;63361;52.384;20.930;2022-12-10T10:31:32;48.03;;;16.17;;
74833;SDS011;63361;52.384;20.930;2022-12-10T10:34:01;35.20;;;12.27;;
74833;SDS011;63361;52.384;20.930;2022-12-10T10:36:33;46.05;;;17.40;;
74833;SDS011;63361;52.384;20.930;2022-12-10T10:41:57;43.60;;;15.07;;
74833;SDS011;63361;52.384;20.930;2022-12-10T10:44:25;44.25;;;15.43;;
74833;SDS011;63361;52.384;20.930;2022-12-10T10:46:58;41.07;;;14.93;;
74833;SDS011;63361;52.384;20.930;2022-12-10T10:49:28;46.60;;;13.70;;
74833;SDS011;63361;52.384;20.930;2022-12-10T10:52:15;26.48;;;11.38;;
74833;SDS011;63361;52.384;20.930;2022-12-10T10:54:45;45.13;;;15.32;;
74833;SDS011;63361;52.384;20.930;2022-12-10T10:59:53;43.08;;;14.60;;
74833;SDS011;63361;52.384;20.930;2022-12-10T11:02:30;39.83;;;14.10;;
74833;SDS011;63361;52.384;20.930;2022-12-10T11:07:41;34.30;;;12.55;;
74833;SDS011;63361;52.384;20.930;2022-12-10T11:10:17;36.77;;;13.80;;
74833;SDS011;63361;52.384;20.930;2022-12-10T11:12:53;56.63;;;18.97;;
74833;SDS011;63361;52.384;20.930;2022-12-10T11:17:51;57.92;;;17.60;;
74833;SDS011;63361;52.384;20.930;2022-12-10T11:20:25;51.88;;;18.42;;
74833;SDS011;63361;52.384;20.930;2022-12-10T11:22:55;60.17;;;19.58;;
74833;SDS011;63361;52.384;20.930;2022-12-10T11:25:48;47.70;;;17.53;;
74833;SDS011;63361;52.384;20.930;2022-12-10T11:42:43;49.10;;;15.27;;
74833;SDS011;63361;52.384;20.930;2022-12-10T11:45:26;52.25;;;17.23;;
74833;SDS011;63361;52.384;20.930;2022-12-10T11:48:08;51.97;;;18.45;;
74833;SDS011;63361;52.384;20.930;2022-12-10T11:50:59;36.42;;;13.95;;
74833;SDS011;63361;52.384;20.930;2022-12-10T11:56:25;46.00;;;14.47;;
74833;SDS011;63361;52.384;20.930;2022-12-10T12:20:57;41.72;;;13.93;;
74833;SDS011;63361;52.384;20.930;2022-12-10T12:31:36;43.85;;;14.43;;
74833;SDS011;63361;52.384;20.930;2022-12-10T12:34:06;44.17;;;15.23;;
74833;SDS011;63361;52.384;20.930;2022-12-10T12:36:40;35.73;;;13.97;;
74833;SDS011;63361;52.384;20.930;2022-12-10T12:42:29;42.28;;;15.95;;
74833;SDS011;63361;52.384;20.930;2022-12-10T12:45:11;39.97;;;14.63;;
74833;SDS011;63361;52.384;20.930;2022-12-10T12:50:24;47.17;;;17.23;;
74833;SDS011;63361;52.384;20.930;2022-12-10T12:52:57;44.30;;;16.65;;
74833;SDS011;63361;52.384;20.930;2022-12-10T12:58:13;33.20;;;12.63;;
74833;SDS011;63361;52.384;20.930;2022-12-10T13:00:41;32.53;;;13.57;;
74833;SDS011;63361;52.384;20.930;2022-12-10T13:03:18;29.50;;;11.40;;
74833;SDS011;63361;52.384;20.930;2022-12-10T13:05:53;29.63;;;12.45;;
74833;SDS011;63361;52.384;20.930;2022-12-10T13:11:14;37.93;;;14.27;;
74833;SDS011;63361;52.384;20.930;2022-12-10T13:32:19;40.33;;;15.95;;
74833;SDS011;63361;52.384;20.930;2022-12-10T13:40:22;41.88;;;16.60;;
74833;SDS011;63361;52.384;20.930;2022-12-10T13:42:58;44.67;;;17.73;;
74833;SDS011;63361;52.384;20.930;2022-12-10T13:48:51;41.80;;;17.75;;
74833;SDS011;63361;52.384;20.930;2022-12-10T13:54:10;43.90;;;16.88;;
74833;SDS011;63361;52.384;20.930;2022-12-10T13:57:02;45.83;;;17.88;;
74833;SDS011;63361;52.384;20.930;2022-12-10T13:59:52;40.70;;;14.32;;
74833;SDS011;63361;52.384;20.930;2022-12-10T14:02:50;30.33;;;13.52;;
74833;SDS011;63361;52.384;20.930;2022-12-10T14:08:18;36.47;;;14.27;;
74833;SDS011;63361;52.384;20.930;2022-12-10T14:10:48;38.00;;;17.30;;
74833;SDS011;63361;52.384;20.930;2022-12-10T14:13:16;35.58;;;17.35;;
74833;SDS011;63361;52.384;20.930;2022-12-10T14:15:55;35.45;;;15.00;;
74833;SDS011;63361;52.384;20.930;2022-12-10T14:18:24;33.50;;;16.07;;
74833;SDS011;63361;52.384;20.930;2022-12-10T14:20:53;57.20;;;23.17;;
74833;SDS011;63361;52.384;20.930;2022-12-10T14:23:27;45.15;;;19.45;;
74833;SDS011;63361;52.384;20.930;2022-12-10T14:25:58;45.42;;;21.52;;
74833;SDS011;63361;52.384;20.930;2022-12-10T14:28:29;37.85;;;16.10;;
74833;SDS011;63361;52.384;20.930;2022-12-10T14:30:54;52.33;;;21.37;;
74833;SDS011;63361;52.384;20.930;2022-12-10T14:33:21;45.70;;;20.30;;
74833;SDS011;63361;52.384;20.930;2022-12-10T14:35:49;28.83;;;13.93;;
74833;SDS011;63361;52.384;20.930;2022-12-10T14:38:19;37.40;;;17.60;;
74833;SDS011;63361;52.384;20.930;2022-12-10T14:40:48;43.33;;;20.40;;
74833;SDS011;63361;52.384;20.930;2022-12-10T14:43:17;41.13;;;17.53;;
74833;SDS011;63361;52.384;20.930;2022-12-10T14:45:46;36.57;;;16.67;;
74833;SDS011;63361;52.384;20.930;2022-12-10T14:48:16;32.58;;;15.63;;
74833;SDS011;63361;52.384;20.930;2022-12-10T14:50:42;35.42;;;17.20;;
74833;SDS011;63361;52.384;20.930;2022-12-10T14:53:11;37.15;;;17.80;;
74833;SDS011;63361;52.384;20.930;2022-12-10T14:55:40;32.05;;;16.77;;
74833;SDS011;63361;52.384;20.930;2022-12-10T14:58:09;39.20;;;18.10;;
74833;SDS011;63361;52.384;20.930;2022-12-10T15:00:41;35.75;;;17.52;;
74833;SDS011;63361;52.384;20.930;2022-12-10T15:03:08;45.07;;;21.23;;
74833;SDS011;63361;52.384;20.930;2022-12-10T15:05:35;37.78;;;18.40;;
74833;SDS011;63361;52.384;20.930;2022-12-10T15:12:59;24.75;;;13.50;;
74833;SDS011;63361;52.384;20.930;2022-12-10T15:15:29;35.10;;;17.70;;
74833;SDS011;63361;52.384;20.930;2022-12-10T15:18:03;31.90;;;15.50;;
74833;SDS011;63361;52.384;20.930;2022-12-10T15:20:54;29.60;;;14.52;;
74833;SDS011;63361;52.384;20.930;2022-12-10T15:31:10;36.58;;;16.60;;
74833;SDS011;63361;52.384;20.930;2022-12-10T15:33:43;29.47;;;13.80;;
74833;SDS011;63361;52.384;20.930;2022-12-10T15:41:46;38.45;;;19.60;;
74833;SDS011;63361;52.384;20.930;2022-12-10T15:49:26;36.85;;;19.08;;
74833;SDS011;63361;52.384;20.930;2022-12-10T15:51:51;33.10;;;16.70;;
74833;SDS011;63361;52.384;20.930;2022-12-10T15:54:38;26.30;;;13.75;;
74833;SDS011;63361;52.384;20.930;2022-12-10T15:57:21;31.48;;;16.05;;
74833;SDS011;63361;52.384;20.930;2022-12-10T15:59:52;29.70;;;15.23;;
74833;SDS011;63361;52.384;20.930;2022-12-10T16:02:35;28.60;;;14.00;;
74833;SDS011;63361;52.384;20.930;2022-12-10T16:05:02;29.85;;;15.68;;
74833;SDS011;63361;52.384;20.930;2022-12-10T16:07:35;34.50;;;17.02;;
74833;SDS011;63361;52.384;20.930;2022-12-10T16:10:00;25.23;;;12.20;;
74833;SDS011;63361;52.384;20.930;2022-12-10T16:12:25;32.80;;;15.10;;
74833;SDS011;63361;52.384;20.930;2022-12-10T16:14:52;24.98;;;12.50;;
74833;SDS011;63361;52.384;20.930;2022-12-10T16:17:28;27.70;;;13.73;;
74833;SDS011;63361;52.384;20.930;2022-12-10T16:20:09;30.50;;;15.10;;
74833;SDS011;63361;52.384;20.930;2022-12-10T16:22:38;38.63;;;18.63;;
74833;SDS011;63361;52.384;20.930;2022-12-10T16:25:03;34.70;;;16.93;;
74833;SDS011;63361;52.384;20.930;2022-12-10T16:27:29;26.77;;;13.10;;
74833;SDS011;63361;52.384;20.930;2022-12-10T16:29:57;34.13;;;16.50;;
74833;SDS011;63361;52.384;20.930;2022-12-10T16:32:23;46.22;;;18.90;;
74833;SDS011;63361;52.384;20.930;2022-12-10T16:34:48;62.13;;;23.90;;
74833;SDS011;63361;52.384;20.930;2022-12-10T16:37:13;152.40;;;46.43;;
74833;SDS011;63361;52.384;20.930;2022-12-10T16:39:39;52.73;;;21.10;;
74833;SDS011;63361;52.384;20.930;2022-12-10T16:42:07;40.97;;;17.48;;
74833;SDS011;63361;52.384;20.930;2022-12-10T16:44:35;43.35;;;19.05;;
74833;SDS011;63361;52.384;20.930;2022-12-10T16:47:00;48.60;;;20.83;;
74833;SDS011;63361;52.384;20.930;2022-12-10T16:49:25;63.83;;;27.10;;
74833;SDS011;63361;52.384;20.930;2022-12-10T16:51:51;62.37;;;28.40;;
74833;SDS011;63361;52.384;20.930;2022-12-10T16:54:16;31.40;;;15.20;;
74833;SDS011;63361;52.384;20.930;2022-12-10T16:56:42;25.50;;;12.17;;
74833;SDS011;63361;52.384;20.930;2022-12-10T16:59:07;29.13;;;14.43;;
74833;SDS011;63361;52.384;20.930;2022-12-10T17:01:34;28.10;;;13.73;;
74833;SDS011;63361;52.384;20.930;2022-12-10T17:04:00;28.15;;;14.05;;
74833;SDS011;63361;52.384;20.930;2022-12-10T17:06:25;24.00;;;14.00;;
74833;SDS011;63361;52.384;20.930;2022-12-10T17:08:51;34.10;;;16.73;;
74833;SDS011;63361;52.384;20.930;2022-12-10T17:11:18;33.07;;;17.60;;
74833;SDS011;63361;52.384;20.930;2022-12-10T17:14:05;38.00;;;18.08;;
74833;SDS011;63361;52.384;20.930;2022-12-10T17:16:34;28.27;;;13.95;;